Zeeland, Netherlands
Current Conditions -  °F | °C
As of 7:55 AM on Friday 31 Oct 2014 (Local Time) from EHVK Reporting Station
Haze Haze  
Wind Chill: 52°   Ceiling: Unl
Heat Index: 52°   Visibility: 6mi
Dew Point: 50°   Wind: 3mph
Humidity: 94%   Direction: 170°S
Pressure: 30.15"   Gusts: NA
Location:  51.7°N, 5.68°E
Report Text: EHVK 310655Z AUTO 17003KT 9000 BR FEW110 11/10 Q1021 BLU 17004KT 9000 NSC
Loading
Personal Weather Stations






























Interactive Weather Map
Tropical Storm Tracking
New forecast layout! Learn more

10-Day Weather Forecast

Advertisements
Track Severe Weather on mobile